Ardmore, Pennsylvania
Current Conditions -  °F | °C
As of 3:15 AM on Monday 24 Nov 2014 (Local Time) from KLOM Reporting Station
Overcast Overcast  
Wind Chill: 61°   Ceiling: 700
Heat Index: 61°   Visibility: 2.5mi
Dew Point: 59°   Wind: 15mph
Humidity: 94%   Direction: 150°SSE
Pressure: 29.7"   Gusts: 25mph
Location:  40.01°N, 75.28°W
Report Text: KLOM 240815Z AUTO 15013G22KT 2 1/2SM BKN007 OVC012 16/15 A2970 RMK AO1 VIS 1 1/4V4 P0009
Loading
Personal Weather Stations






























Interactive Weather Map New forecast layout! Learn more

10-Day Weather Forecast

Advertisements
Track Severe Weather on mobile